Have a Safe July 4th! 

Flight Track Log - Related Links

Times and Time Zones

All times are in EDT time to prevent confusion due to time zone crossing. See the SWA760 flight status page for this flight to view local times or setup timezone preferences in your user account.

Time Position Orientation Groundspeed Altitude Reporting Facility
EDT Latitude Longitude Course Direction KTS MPH feet Rate Location/Type
Tue 02:00:34 PM 37.7333 -122.2833 288° West 178 205 2,100  Level Northern Cal TRACON
Tue 02:01:34 PM 37.7500 -122.3500 288° West 255 293 6,100 4,400 Climbing Northern Cal TRACON
Tue 02:02:34 PM 37.7500 -122.4333 270° West 272 313 10,900 4,750 Climbing Northern Cal TRACON
Tue 02:03:34 PM 37.6667 -122.4500 189° South 301 346 15,600 3,916 Climbing Northern Cal TRACON
Tue 02:04:09 PM 37.6153 -122.4347 167° South 317 365 17,100 2,313 Climbing Oakland Center
Tue 02:05:10 PM 37.5389 -122.3508 139° Southeast 367 422 19,300 2,585 Climbing Oakland Center
Tue 02:06:12 PM 37.4533 -122.2603 140° Southeast 396 456 22,400 3,171 Climbing Oakland Center
Tue 02:07:13 PM 37.3647 -122.1636 139° Southeast 417 480 25,800 2,244 Climbing Oakland Center
Tue 02:08:15 PM 37.2722 -122.0683 141° Southeast 427 491 27,000 2,244 Climbing Oakland Center
Tue 02:09:16 PM 37.1797 -121.9692 139° Southeast 436 502 30,400 2,902 Climbing Oakland Center
Tue 02:10:17 PM 37.0903 -121.8750 140° Southeast 426 490 32,900 1,268 Climbing Oakland Center
Tue 02:11:19 PM 36.9989 -121.7836 141° Southeast 423 487 33,000 49 Climbing Oakland Center
Tue 02:12:20 PM 36.9075 -121.6892 140° Southeast 426 490 33,000  Level Oakland Center
Tue 02:13:21 PM 36.8067 -121.5867 141° Southeast 441 507 33,000  Level Oakland Center
Tue 02:14:23 PM 36.7119 -121.4886 140° Southeast 442 509 33,000  Level Oakland Center
Tue 02:15:24 PM 36.5978 -121.3706 140° Southeast 443 510 33,000  Level Oakland Center
Tue 02:16:25 PM 36.5019 -121.2736 141° Southeast 444 511 33,000  Level Oakland Center
Tue 02:17:27 PM 36.4072 -121.1753 140° Southeast 445 512 33,000  Level Oakland Center
Tue 02:18:28 PM 36.3125 -121.0789 141° Southeast 441 507 33,000  Level Oakland Center
Tue 02:19:29 PM 36.2178 -120.9825 141° Southeast 441 507 33,000  Level Oakland Center
Tue 02:20:31 PM 36.1233 -120.8869 141° Southeast 439 505 33,000  Level Oakland Center
Tue 02:21:32 PM 36.0303 -120.7917 140° Southeast 434 499 33,000  Level Oakland Center
Tue 02:22:33 PM 35.9369 -120.6992 141° Southeast 431 496 33,000  Level Oakland Center
Tue 02:23:35 PM 35.8436 -120.6056 141° Southeast 431 496 33,000  Level Oakland Center
Tue 02:24:36 PM 35.7489 -120.5119 141° Southeast 435 501 33,000  Level Oakland Center
Tue 02:25:37 PM 35.6367 -120.4003 141° Southeast 432 497 33,000  Level Oakland Center
Tue 02:26:39 PM 35.5428 -120.3061 141° Southeast 431 496 33,000  Level Oakland Center
Tue 02:27:40 PM 35.4619 -120.2250 141° Southeast 433 498 33,000  Level Oakland Center
Tue 02:28:41 PM 35.3508 -120.1153 141° Southeast 436 502 33,000  Level Oakland Center
Tue 02:29:43 PM 35.2553 -120.0225 142° Southeast 434 499 33,000 -732 Level Oakland Center
Tue 02:30:44 PM 35.1608 -119.9319 142° Southeast 432 497 31,500 -1,918 Descending Oakland Center
Tue 02:31:45 PM 35.0703 -119.8389 140° Southeast 425 489 29,100 -2,311 Descending Oakland Center
Tue 02:32:46 PM 34.9947 -119.7325 131° Southeast 416 479 26,800 -2,262 Descending Oakland Center
Tue 02:33:47 PM 34.9186 -119.6328 133° Southeast 407 468 24,500 -2,195 Descending Oakland Center
Tue 02:34:49 PM 34.8453 -119.5347 132° Southeast 395 455 22,300 -2,146 Descending Oakland Center
Tue 02:35:50 PM 34.7769 -119.4375 131° Southeast 384 442 20,100 -2,164 Descending Oakland Center
Tue 02:36:51 PM 34.7069 -119.3467 133° Southeast 373 429 17,900 -1,985 Descending Oakland Center
Tue 02:38:06 PM 34.6281 -119.2394 132° Southeast 360 414 15,600 -1,840 Descending Los Angeles Center

Login

Don't have an account? Register now (free) for customized features, flight alerts, and more!